Time;durP1;ratioP1;P1;durP2;ratioP2;P2;SDS_P1;SDS_P2;PMS_P1;PMS_P2;Temp;Humidity;BMP_temperature;BMP_pressure;BME280_temperature;BME280_humidity;BME280_pressure;Samples;Min_cycle;Max_cycle;Signal;HPM_P1;HPM_P2
2021/01/21 00:00:31;;;;;;;;;;;;;;;;;;5031575;28;20685;-56
2021/01/21 00:02:57;;;;;;;6.20;2.10;;;;;;;;;;5040366;28;19925;-50
2021/01/21 00:05:23;;;;;;;;;;;;;;;;;;5040613;28;20048;-52
2021/01/21 00:07:49;;;;;;;10.02;2.28;;;;;;;;;;5040907;28;20385;-56
2021/01/21 00:10:15;;;;;;;;;;;;;;;;;;5040689;28;20037;-56
2021/01/21 00:12:41;;;;;;;11.82;3.35;;;;;;;;;;5040869;28;20395;-54
2021/01/21 00:15:07;;;;;;;;;;;;;;;;;;5019488;28;20038;-52
2021/01/21 00:17:33;;;;;;;10.52;1.70;;;;;;;;;;5006836;28;19956;-51
2021/01/21 00:19:59;;;;;;;3.97;1.70;;;;;;;;;;5017555;28;20060;-56
2021/01/21 00:22:25;;;;;;;5.82;2.10;;;;;;;;;;5026652;28;20033;-54
2021/01/21 00:24:51;;;;;;;8.95;2.45;;;;;;;;;;5025895;28;20040;-56
2021/01/21 00:27:17;;;;;;;7.10;2.75;;;;;;;;;;5028244;28;20038;-55
2021/01/21 00:29:43;;;;;;;5.88;1.92;;;;;;;;;;5027473;28;20088;-53
2021/01/21 00:32:09;;;;;;;;;;;;;;;;;;5028229;28;20079;-54
2021/01/21 00:34:35;;;;;;;9.10;2.55;;;;;;;;;;5010674;28;19953;-52
2021/01/21 00:37:01;;;;;;;;;;;;;;;;;;5009095;28;20410;-55
2021/01/21 00:39:27;;;;;;;7.18;2.45;;;;;;;;;;5026793;28;19955;-55
2021/01/21 00:41:53;;;;;;;5.68;1.70;;;;;;;;;;5028062;28;20037;-55
2021/01/21 00:44:18;;;;;;;3.92;1.80;;;;;;;;;;5027770;28;20051;-55
2021/01/21 00:46:44;;;;;;;;;;;;;;;;;;5009005;28;20042;-53
2021/01/21 00:49:10;;;;;;;4.72;1.52;;;;;;;;;;5009148;28;20011;-53
2021/01/21 00:51:36;;;;;;;;;;;;;;;;;;5028307;28;20029;-56
2021/01/21 00:54:02;;;;;;;5.05;1.70;;;;;;;;;;5026275;28;19978;-54
2021/01/21 00:56:28;;;;;;;;;;;;;;;;;;5027617;28;20129;-55
2021/01/21 00:58:54;;;;;;;6.60;2.53;;;;;;;;;;5025929;28;19917;-50
2021/01/21 01:01:20;;;;;;;6.35;2.17;;;;;;;;;;5023478;28;20682;-57
2021/01/21 01:03:46;;;;;;;4.95;1.73;;;;;;;;;;5026239;28;20044;-56
2021/01/21 01:06:12;;;;;;;;;;;;;;;;;;5026554;28;20037;-53
2021/01/21 01:08:38;;;;;;;5.82;1.55;;;;;;;;;;5027235;28;19913;-57
2021/01/21 01:11:04;;;;;;;;;;;;;;;;;;5025771;28;20055;-54
2021/01/21 01:13:30;;;;;;;4.40;1.50;;;;;;;;;;5027152;28;19971;-54
2021/01/21 01:15:56;;;;;;;4.78;1.58;;;;;;;;;;5017714;28;20702;-57
2021/01/21 01:18:22;;;;;;;;;;;;;;;;;;5007800;28;20084;-56
2021/01/21 01:20:48;;;;;;;8.40;1.77;;;;;;;;;;5020269;28;20473;-54
2021/01/21 01:23:14;;;;;;;12.85;1.98;;;;;;;;;;5026144;28;20444;-54
2021/01/21 01:25:40;;;;;;;3.55;1.50;;;;;;;;;;5025499;28;20124;-57
2021/01/21 01:28:06;;;;;;;;;;;;;;;;;;5026695;28;20116;-54
2021/01/21 01:30:32;;;;;;;6.03;1.50;;;;;;;;;;5021797;28;19917;-54
2021/01/21 01:32:58;;;;;;;5.28;1.85;;;;;;;;;;5024959;28;20041;-54
2021/01/21 01:35:24;;;;;;;4.45;1.67;;;;;;;;;;5025820;28;20049;-48
2021/01/21 01:37:50;;;;;;;;;;;;;;;;;;5025985;28;20087;-51
2021/01/21 01:40:16;;;;;;;5.32;2.45;;;;;;;;;;5024907;28;19928;-55
2021/01/21 01:42:44;;;;;;;3.88;1.48;;;;;;;;;;5025831;28;20054;-56
2021/01/21 01:45:11;;;;;;;4.93;1.50;;;;;;;;;;5025469;28;20049;-54
2021/01/21 01:47:38;;;;;;;4.53;2.13;;;;;;;;;;5014819;28;20042;-52
2021/01/21 01:50:04;;;;;;;5.97;1.65;;;;;;;;;;5014619;28;20060;-51
2021/01/21 01:52:30;;;;;;;5.38;1.35;;;;;;;;;;5026155;28;20037;-55
2021/01/21 01:54:56;;;;;;;5.07;1.60;;;;;;;;;;5025664;28;20041;-52
2021/01/21 01:57:22;;;;;;;;;;;;;;;;;;5019663;28;20042;-52
2021/01/21 01:59:53;;;;;;;6.38;1.70;;;;;;;;;;5005789;28;19918;-49
2021/01/21 02:02:19;;;;;;;5.05;1.70;;;;;;;;;;5023220;28;20041;-50
2021/01/21 02:04:45;;;;;;;;;;;;;;;;;;5026162;28;20037;-55
2021/01/21 02:07:11;;;;;;;7.00;1.58;;;;;;;;;;5023461;28;20031;-55
2021/01/21 02:09:37;;;;;;;;;;;;;;;;;;5017959;28;20057;-54
2021/01/21 02:12:18;;;;;;;7.65;1.63;;;;;;;;;;5025560;28;20023;-51
2021/01/21 02:15:08;;;;;;;4.18;1.30;;;;;;;;;;5026083;28;20038;-53
2021/01/21 02:17:56;;;;;;;4.03;1.58;;;;;;;;;;5024422;28;20045;-55
2021/01/21 02:20:41;;;;;;;6.68;1.60;;;;;;;;;;5010768;28;20069;-56
2021/01/21 02:23:12;;;;;;;5.68;1.42;;;;;;;;;;5005935;28;20100;-54
2021/01/21 02:25:47;;;;;;;9.77;1.30;;;;;;;;;;5005156;28;20045;-50
2021/01/21 02:28:13;;;;;;;4.50;2.30;;;;;;;;;;5021319;28;20033;-54
2021/01/21 02:30:39;;;;;;;;;;;;;;;;;;5022466;28;20033;-52
2021/01/21 02:33:29;;;;;;;7.03;1.75;;;;;;;;;;5025208;28;20345;-57
2021/01/21 02:35:58;;;;;;;5.53;1.73;;;;;;;;;;5025283;28;20041;-55
2021/01/21 02:38:25;;;;;;;5.13;1.60;;;;;;;;;;5020822;28;20044;-53
2021/01/21 02:40:50;;;;;;;5.22;1.52;;;;;;;;;;5005296;28;20042;-53
2021/01/21 02:43:16;;;;;;;;;;;;;;;;;;5005870;28;20037;-53
2021/01/21 02:45:43;;;;;;;4.25;1.25;;;;;;;;;;5021908;28;19921;-55
2021/01/21 02:48:09;;;;;;;6.55;1.20;;;;;;;;;;5023314;28;20077;-53
2021/01/21 02:50:36;;;;;;;3.95;1.95;;;;;;;;;;5024396;28;20775;-56
2021/01/21 02:53:02;;;;;;;5.97;2.05;;;;;;;;;;5012656;28;20056;-53
2021/01/21 02:55:37;;;;;;;5.00;1.98;;;;;;;;;;5004669;28;20042;-56
2021/01/21 02:58:25;;;;;;;4.68;1.55;;;;;;;;;;5005221;28;20128;-55
2021/01/21 03:00:53;;;;;;;6.97;1.65;;;;;;;;;;5017405;28;20030;-56
2021/01/21 03:03:21;;;;;;;4.50;1.80;;;;;;;;;;5021871;28;20072;-56
2021/01/21 03:05:52;;;;;;;7.78;1.63;;;;;;;;;;5019743;28;20045;-56
2021/01/21 03:08:18;;;;;;;9.82;1.95;;;;;;;;;;5025267;28;20041;-52
2021/01/21 03:10:44;;;;;;;4.57;1.80;;;;;;;;;;5024145;28;20056;-53
2021/01/21 03:13:10;;;;;;;;;;;;;;;;;;5025652;28;20052;-54
2021/01/21 03:15:36;;;;;;;4.60;1.63;;;;;;;;;;5024312;28;20381;-52
2021/01/21 03:18:02;;;;;;;;;;;;;;;;;;5023944;28;20061;-52
2021/01/21 03:20:28;;;;;;;7.57;1.98;;;;;;;;;;5022380;28;19917;-53
2021/01/21 03:22:54;;;;;;;;;;;;;;;;;;5024411;28;20587;-56
2021/01/21 03:25:20;;;;;;;8.30;1.67;;;;;;;;;;5023827;28;20339;-55
2021/01/21 03:27:46;;;;;;;4.93;1.55;;;;;;;;;;5024249;28;20516;-51
2021/01/21 03:30:12;;;;;;;;;;;;;;;;;;5020659;28;20034;-54
2021/01/21 03:32:38;;;;;;;5.07;1.55;;;;;;;;;;5023832;28;20020;-54
2021/01/21 03:35:05;;;;;;;3.45;1.70;;;;;;;;;;5023969;28;20140;-54
2021/01/21 03:37:31;;;;;;;4.43;1.38;;;;;;;;;;5024262;28;20045;-51
2021/01/21 03:39:57;;;;;;;5.10;1.50;;;;;;;;;;5023324;28;20056;-56
2021/01/21 03:42:23;;;;;;;;;;;;;;;;;;5024374;28;20545;-54
2021/01/21 03:44:49;;;;;;;5.60;1.55;;;;;;;;;;5023367;28;19939;-52
2021/01/21 03:47:15;;;;;;;;;;;;;;;;;;5023640;28;20045;-50
2021/01/21 03:49:40;;;;;;;5.82;1.92;;;;;;;;;;5025153;28;19921;-51
2021/01/21 03:52:06;;;;;;;4.90;1.73;;;;;;;;;;5028201;28;20041;-55
2021/01/21 03:54:32;;;;;;;;;;;;;;;;;;5017033;28;20441;-53
2021/01/21 03:56:58;;;;;;;7.97;1.60;;;;;;;;;;5007973;28;20021;-52
2021/01/21 03:59:24;;;;;;;5.10;2.00;;;;;;;;;;5009259;28;20061;-58
2021/01/21 04:01:50;;;;;;;;;;;;;;;;;;5027513;28;20858;-54
2021/01/21 04:04:16;;;;;;;6.53;1.70;;;;;;;;;;5027942;28;19971;-52
2021/01/21 04:06:42;;;;;;;;;;;;;;;;;;5028740;28;20033;-52
2021/01/21 04:09:08;;;;;;;3.53;1.60;;;;;;;;;;5027452;28;20445;-55
2021/01/21 04:11:34;;;;;;;;;;;;;;;;;;5023695;28;20038;-53
2021/01/21 04:14:00;;;;;;;2.10;1.20;;;;;;;;;;5008899;28;20026;-56
2021/01/21 04:16:26;;;;;;;;;;;;;;;;;;5007213;28;20048;-52
2021/01/21 04:18:52;;;;;;;5.50;1.52;;;;;;;;;;5008004;28;19921;-56
2021/01/21 04:21:18;;;;;;;;;;;;;;;;;;5008317;28;20584;-50
2021/01/21 04:23:44;;;;;;;3.83;1.42;;;;;;;;;;5009190;28;19933;-56
2021/01/21 04:26:10;;;;;;;4.45;1.80;;;;;;;;;;5007529;28;20049;-57
2021/01/21 04:28:36;;;;;;;4.57;1.38;;;;;;;;;;5008392;28;20080;-55
2021/01/21 04:31:02;;;;;;;;;;;;;;;;;;5023138;28;20088;-55
2021/01/21 04:33:28;;;;;;;2.92;1.13;;;;;;;;;;5027406;28;19921;-56
2021/01/21 04:35:54;;;;;;;6.03;1.50;;;;;;;;;;5023107;28;20042;-55
2021/01/21 04:38:20;;;;;;;;;;;;;;;;;;5025870;28;20067;-53
2021/01/21 04:40:46;;;;;;;3.90;1.42;;;;;;;;;;5027401;28;19925;-55
2021/01/21 04:43:12;;;;;;;;;;;;;;;;;;5027757;28;20574;-56
2021/01/21 04:45:38;;;;;;;5.15;1.05;;;;;;;;;;5027045;28;19917;-57
2021/01/21 04:48:05;;;;;;;2.75;1.30;;;;;;;;;;5025504;28;20033;-56
2021/01/21 04:50:31;;;;;;;8.05;1.63;;;;;;;;;;5024161;28;20130;-56
2021/01/21 04:52:59;;;;;;;4.82;1.40;;;;;;;;;;5026893;28;20048;-55
2021/01/21 04:55:34;;;;;;;4.35;1.48;;;;;;;;;;5026457;28;20045;-54
2021/01/21 04:58:07;;;;;;;5.30;1.48;;;;;;;;;;5027344;28;20052;-52
2021/01/21 05:00:33;;;;;;;7.43;1.70;;;;;;;;;;5025333;28;20038;-50
2021/01/21 05:03:01;;;;;;;2.17;1.10;;;;;;;;;;5025902;28;20156;-52
2021/01/21 05:05:27;;;;;;;3.75;1.27;;;;;;;;;;5021725;28;20045;-53
2021/01/21 05:07:52;;;;;;;;;;;;;;;;;;5007509;28;20041;-57
2021/01/21 05:10:19;;;;;;;6.88;1.88;;;;;;;;;;5008959;28;20645;-52
2021/01/21 05:12:45;;;;;;;7.38;1.70;;;;;;;;;;5026428;28;20048;-57
2021/01/21 05:15:11;;;;;;;;;;;;;;;;;;5024969;28;20468;-53
2021/01/21 05:17:37;;;;;;;4.60;1.67;;;;;;;;;;5026389;28;19917;-58
2021/01/21 05:20:03;;;;;;;5.68;1.17;;;;;;;;;;5025955;28;20037;-56
2021/01/21 05:22:29;;;;;;;4.53;1.23;;;;;;;;;;5025944;28;20099;-52
2021/01/21 05:24:55;;;;;;;3.65;1.08;;;;;;;;;;5024880;28;20550;-55
2021/01/21 05:27:21;;;;;;;;;;;;;;;;;;5025365;28;20571;-56
2021/01/21 05:29:48;;;;;;;3.45;1.20;;;;;;;;;;5021680;28;20014;-56
2021/01/21 05:32:14;;;;;;;6.03;1.80;;;;;;;;;;5022946;28;20048;-51
2021/01/21 05:34:41;;;;;;;2.03;1.17;;;;;;;;;;5024622;28;20041;-51
2021/01/21 05:37:10;;;;;;;3.40;1.45;;;;;;;;;;5025195;28;20037;-48
2021/01/21 05:39:40;;;;;;;3.55;1.25;;;;;;;;;;5024243;28;20039;-55
2021/01/21 05:42:07;;;;;;;4.35;1.30;;;;;;;;;;5025904;28;20030;-55
2021/01/21 05:44:33;;;;;;;4.55;1.20;;;;;;;;;;5025000;28;20048;-56
2021/01/21 05:47:06;;;;;;;3.17;1.30;;;;;;;;;;5024558;28;20120;-57
2021/01/21 05:49:32;;;;;;;3.20;1.25;;;;;;;;;;5018098;28;20043;-56
2021/01/21 05:51:59;;;;;;;4.32;1.42;;;;;;;;;;5020932;28;20048;-54
2021/01/21 05:54:27;;;;;;;3.22;1.20;;;;;;;;;;5006586;28;20042;-54
2021/01/21 05:56:54;;;;;;;5.75;1.30;;;;;;;;;;5005992;28;20132;-58
2021/01/21 05:59:20;;;;;;;5.97;1.48;;;;;;;;;;5007168;28;20045;-56
2021/01/21 06:01:46;;;;;;;;;;;;;;;;;;5025205;28;20099;-53
2021/01/21 06:04:13;;;;;;;3.47;1.40;;;;;;;;;;5024925;28;19924;-56
2021/01/21 06:06:40;;;;;;;8.13;1.60;;;;;;;;;;5025224;28;20045;-55
2021/01/21 06:09:06;;;;;;;4.40;1.17;;;;;;;;;;5025472;28;20041;-54
2021/01/21 06:11:32;;;;;;;6.40;1.17;;;;;;;;;;5020477;28;20120;-52
2021/01/21 06:13:58;;;;;;;;;;;;;;;;;;5025381;28;20076;-53
2021/01/21 06:16:25;;;;;;;3.85;1.02;;;;;;;;;;5024955;28;20460;-55
2021/01/21 06:18:51;;;;;;;8.63;1.15;;;;;;;;;;5023645;28;20041;-55
2021/01/21 06:21:17;;;;;;;;;;;;;;;;;;5024595;28;20056;-54
2021/01/21 06:23:44;;;;;;;2.17;0.88;;;;;;;;;;5024867;28;20356;-54
2021/01/21 06:26:11;;;;;;;3.00;1.15;;;;;;;;;;5024163;28;20049;-55
2021/01/21 06:28:39;;;;;;;2.55;0.80;;;;;;;;;;5024303;28;20042;-53
2021/01/21 06:31:05;;;;;;;5.03;0.90;;;;;;;;;;5016098;28;20038;-53
2021/01/21 06:33:33;;;;;;;2.92;1.00;;;;;;;;;;5008419;28;20132;-53
2021/01/21 06:36:03;;;;;;;2.22;0.80;;;;;;;;;;5025059;28;20120;-56
2021/01/21 06:38:39;;;;;;;2.20;1.00;;;;;;;;;;5023511;28;20068;-51
2021/01/21 06:41:10;;;;;;;1.42;0.88;;;;;;;;;;5019078;28;20045;-54
2021/01/21 06:43:37;;;;;;;1.65;0.88;;;;;;;;;;5028948;28;20038;-55
2021/01/21 06:46:03;;;;;;;3.38;0.80;;;;;;;;;;5021453;28;20509;-57
2021/01/21 06:48:29;;;;;;;6.97;1.55;;;;;;;;;;5023464;28;20646;-55
2021/01/21 06:50:55;;;;;;;;;;;;;;;;;;5023243;28;20039;-55
2021/01/21 06:53:21;;;;;;;2.15;1.00;;;;;;;;;;5019555;28;20023;-55
2021/01/21 06:55:49;;;;;;;5.03;1.20;;;;;;;;;;5004836;28;20642;-55
2021/01/21 06:58:15;;;;;;;6.75;1.95;;;;;;;;;;5005062;28;20034;-52
2021/01/21 07:00:42;;;;;;;3.65;1.67;;;;;;;;;;5012653;28;20124;-59
2021/01/21 07:03:09;;;;;;;7.40;2.83;;;;;;;;;;5020693;28;20045;-54
2021/01/21 07:05:35;;;;;;;3.00;1.20;;;;;;;;;;5024617;28;20121;-57
2021/01/21 07:08:01;;;;;;;;;;;;;;;;;;5025598;28;20029;-57
2021/01/21 07:10:29;;;;;;;4.47;1.10;;;;;;;;;;5016957;28;19921;-55
2021/01/21 07:12:56;;;;;;;5.10;1.40;;;;;;;;;;5019968;28;20068;-58
2021/01/21 07:15:41;;;;;;;7.25;3.67;;;;;;;;;;5005901;28;20104;-54
2021/01/21 07:18:12;;;;;;;3.00;1.00;;;;;;;;;;5024380;28;20033;-55
2021/01/21 07:20:58;;;;;;;2.03;1.20;;;;;;;;;;5025085;28;20046;-58
2021/01/21 07:23:31;;;;;;;2.65;1.30;;;;;;;;;;5023729;28;20045;-53
2021/01/21 07:26:15;;;;;;;4.65;0.85;;;;;;;;;;5014809;28;20042;-59
2021/01/21 07:28:51;;;;;;;0.68;0.30;;;;;;;;;;5009003;28;20045;-54
2021/01/21 07:31:17;;;;;;;0.55;0.30;;;;;;;;;;5009738;28;20437;-55
2021/01/21 07:33:43;;;;;;;;;;;;;;;;;;5028631;28;20044;-53
2021/01/21 07:36:29;;;;;;;0.40;0.27;;;;;;;;;;5025759;28;20496;-57
2021/01/21 07:38:55;;;;;;;1.85;1.05;;;;;;;;;;5027566;28;20041;-52
2021/01/21 07:41:40;;;;;;;1.65;0.52;;;;;;;;;;5028196;28;20035;-57
2021/01/21 07:44:06;;;;;;;1.20;0.57;;;;;;;;;;5028263;28;20045;-54
2021/01/21 07:46:32;;;;;;;4.13;2.17;;;;;;;;;;5028056;28;20122;-53
2021/01/21 07:49:16;;;;;;;2.03;1.20;;;;;;;;;;5027335;28;20143;-52
2021/01/21 07:51:42;;;;;;;3.58;0.60;;;;;;;;;;5028266;28;20037;-57
2021/01/21 07:54:09;;;;;;;1.58;0.88;;;;;;;;;;5028042;28;20099;-58
2021/01/21 07:56:39;;;;;;;0.30;0.28;;;;;;;;;;5028214;28;20448;-55
2021/01/21 07:59:05;;;;;;;0.82;0.20;;;;;;;;;;5024953;28;20045;-55
2021/01/21 08:01:31;;;;;;;0.10;0.10;;;;;;;;;;5015190;28;20064;-52
2021/01/21 08:04:05;;;;;;;0.13;0.13;;;;;;;;;;5027468;28;20110;-55
2021/01/21 08:06:31;;;;;;;0.10;0.10;;;;;;;;;;5028389;28;20034;-54
2021/01/21 08:09:10;;;;;;;0.17;0.10;;;;;;;;;;5027855;28;20547;-52
2021/01/21 08:11:37;;;;;;;1.15;0.20;;;;;;;;;;5021866;28;20030;-57
2021/01/21 08:14:03;;;;;;;0.45;0.22;;;;;;;;;;5027401;28;20125;-54
2021/01/21 08:16:29;;;;;;;1.40;0.20;;;;;;;;;;5027094;28;20484;-55
2021/01/21 08:19:02;;;;;;;0.28;0.20;;;;;;;;;;5028227;28;20056;-58
2021/01/21 08:21:29;;;;;;;0.20;0.20;;;;;;;;;;5027553;28;20038;-56
2021/01/21 08:23:59;;;;;;;0.20;0.20;;;;;;;;;;5028444;28;20048;-53
2021/01/21 08:26:25;;;;;;;1.30;0.20;;;;;;;;;;5028170;28;20531;-51
2021/01/21 08:28:51;;;;;;;1.35;0.35;;;;;;;;;;5028145;28;20037;-54
2021/01/21 08:31:18;;;;;;;0.63;0.20;;;;;;;;;;5009611;28;20042;-57
2021/01/21 08:33:49;;;;;;;0.20;0.20;;;;;;;;;;5023562;28;20815;-57
2021/01/21 08:36:16;;;;;;;0.55;0.20;;;;;;;;;;5008207;28;20038;-54
2021/01/21 08:38:44;;;;;;;1.75;0.20;;;;;;;;;;5022133;28;20041;-56
2021/01/21 08:41:14;;;;;;;1.25;0.32;;;;;;;;;;5024252;28;20051;-57
2021/01/21 08:43:41;;;;;;;0.10;0.10;;;;;;;;;;5028027;28;20126;-57
2021/01/21 08:46:18;;;;;;;0.35;0.20;;;;;;;;;;5019433;28;20029;-54
2021/01/21 08:48:44;;;;;;;2.05;0.30;;;;;;;;;;5027463;28;20068;-57
2021/01/21 08:51:34;;;;;;;0.10;0.10;;;;;;;;;;5027430;28;20297;-57
2021/01/21 08:54:12;;;;;;;1.80;0.40;;;;;;;;;;5015406;23;20045;-58
2021/01/21 08:56:38;;;;;;;0.50;0.20;;;;;;;;;;5009593;28;20136;-58
2021/01/21 08:59:23;;;;;;;1.90;0.30;;;;;;;;;;5006958;28;20046;-56
2021/01/21 09:01:49;;;;;;;0.45;0.20;;;;;;;;;;5006361;28;20065;-54
2021/01/21 09:04:29;;;;;;;0.43;0.30;;;;;;;;;;4990617;28;20060;-55
2021/01/21 09:06:55;;;;;;;1.08;0.40;;;;;;;;;;5005699;28;20679;-55
2021/01/21 09:09:25;;;;;;;1.98;0.30;;;;;;;;;;5007031;28;20042;-56
2021/01/21 09:11:51;;;;;;;2.85;0.28;;;;;;;;;;5006668;28;20446;-53
2021/01/21 09:14:23;;;;;;;0.60;0.25;;;;;;;;;;5006751;28;20049;-56
2021/01/21 09:16:50;;;;;;;1.90;0.30;;;;;;;;;;5006193;28;20096;-54
2021/01/21 09:19:17;;;;;;;2.88;0.40;;;;;;;;;;5006345;28;20052;-57
2021/01/21 09:21:59;;;;;;;0.50;0.20;;;;;;;;;;5004369;28;20038;-54
2021/01/21 09:24:25;;;;;;;1.58;0.38;;;;;;;;;;5005629;28;20457;-53
2021/01/21 09:27:09;;;;;;;4.47;1.10;;;;;;;;;;5006179;28;20674;-53
2021/01/21 09:29:45;;;;;;;1.77;0.38;;;;;;;;;;5005452;28;20034;-59
2021/01/21 09:32:11;;;;;;;1.13;0.60;;;;;;;;;;5005102;28;20758;-57
2021/01/21 09:34:38;;;;;;;3.35;0.30;;;;;;;;;;5006264;28;20042;-58
2021/01/21 09:37:04;;;;;;;0.50;0.30;;;;;;;;;;5005591;28;20049;-58
2021/01/21 09:39:30;;;;;;;3.22;0.45;;;;;;;;;;5003498;28;20046;-57
2021/01/21 09:41:56;;;;;;;1.33;0.30;;;;;;;;;;5006219;28;20399;-58
2021/01/21 09:44:22;;;;;;;0.38;0.20;;;;;;;;;;5014485;23;20053;-57
2021/01/21 09:46:48;;;;;;;0.75;0.30;;;;;;;;;;5033090;28;20052;-58
2021/01/21 09:49:14;;;;;;;1.35;0.40;;;;;;;;;;5045496;28;20229;-54
2021/01/21 09:51:40;;;;;;;2.50;0.30;;;;;;;;;;5045399;28;20033;-57
2021/01/21 09:54:06;;;;;;;0.38;0.30;;;;;;;;;;5038654;28;20058;-53
2021/01/21 09:56:32;;;;;;;1.80;0.43;;;;;;;;;;5025777;28;20075;-56
2021/01/21 09:58:58;;;;;;;2.17;0.43;;;;;;;;;;5025810;28;20117;-59
2021/01/21 10:01:24;;;;;;;4.55;0.50;;;;;;;;;;5024457;28;20033;-52
2021/01/21 10:03:50;;;;;;;2.45;0.93;;;;;;;;;;5024915;28;20506;-56
2021/01/21 10:06:16;;;;;;;2.35;0.40;;;;;;;;;;5009231;28;20117;-56
2021/01/21 10:08:42;;;;;;;4.32;0.50;;;;;;;;;;5025322;28;20453;-59
2021/01/21 10:11:08;;;;;;;0.50;0.30;;;;;;;;;;5025265;28;20489;-54
2021/01/21 10:13:34;;;;;;;1.60;0.50;;;;;;;;;;5025135;28;20037;-52
2021/01/21 10:16:00;;;;;;;1.98;0.55;;;;;;;;;;5024356;28;20040;-53
2021/01/21 10:18:26;;;;;;;5.68;0.70;;;;;;;;;;5023928;28;20053;-56
2021/01/21 10:20:52;;;;;;;2.33;0.52;;;;;;;;;;5024169;28;20041;-54
2021/01/21 10:23:18;;;;;;;3.40;1.00;;;;;;;;;;5023606;28;20049;-54
2021/01/21 10:25:44;;;;;;;2.90;1.25;;;;;;;;;;5024457;28;20123;-52
2021/01/21 10:28:10;;;;;;;8.18;1.00;;;;;;;;;;5025096;28;20037;-58
2021/01/21 10:30:36;;;;;;;4.18;0.65;;;;;;;;;;5024137;28;20116;-55
2021/01/21 10:33:02;;;;;;;9.18;2.92;;;;;;;;;;5024592;28;20146;-58
2021/01/21 10:59:25;;;;;;;7.55;1.80;;;;;;;;;;5016283;28;20059;-59
2021/01/21 11:01:51;;;;;;;6.72;1.05;;;;;;;;;;5007451;28;20049;-57
2021/01/21 11:04:17;;;;;;;4.78;0.60;;;;;;;;;;5003047;28;20141;-54
2021/01/21 11:06:43;;;;;;;4.07;0.95;;;;;;;;;;4996345;28;20588;-55
2021/01/21 11:09:09;;;;;;;4.30;0.93;;;;;;;;;;4999622;28;20070;-53
2021/01/21 11:11:35;;;;;;;7.55;0.70;;;;;;;;;;4991842;28;20046;-52
2021/01/21 11:14:01;;;;;;;4.53;0.55;;;;;;;;;;5004680;28;20042;-55
2021/01/21 11:16:27;;;;;;;5.30;0.80;;;;;;;;;;5003493;28;20046;-51
2021/01/21 11:18:53;;;;;;;2.00;0.63;;;;;;;;;;5006436;28;20653;-59
2021/01/21 11:21:19;;;;;;;2.20;0.85;;;;;;;;;;5004957;28;20042;-53
2021/01/21 11:23:45;;;;;;;2.05;0.68;;;;;;;;;;5004563;28;20618;-48
2021/01/21 11:26:11;;;;;;;4.15;0.55;;;;;;;;;;5003513;28;20105;-56
2021/01/21 11:28:37;;;;;;;3.83;0.60;;;;;;;;;;5001429;28;20646;-54
2021/01/21 11:31:04;;;;;;;2.40;0.60;;;;;;;;;;5003937;28;20030;-54
2021/01/21 11:33:30;;;;;;;4.15;1.10;;;;;;;;;;5004177;28;20046;-58
2021/01/21 11:35:56;;;;;;;4.40;1.02;;;;;;;;;;5003712;28;20386;-56
2021/01/21 11:38:22;;;;;;;3.83;1.08;;;;;;;;;;5004261;28;20048;-56
2021/01/21 11:40:48;;;;;;;4.32;1.17;;;;;;;;;;5004823;28;20093;-53
2021/01/21 11:43:14;;;;;;;;;;;;;;;;;;4995072;28;20053;-57
2021/01/21 11:45:41;;;;;;;;;;;;;;;;;;4983913;28;19932;-52
2021/01/21 11:48:07;;;;;;;;;;;;;;;;;;4997938;28;19964;-57
2021/01/21 11:50:33;;;;;;;;;;;;;;;;;;5003742;28;19976;-63
2021/01/21 11:52:59;;;;;;;;;;;;;;;;;;5002123;28;19917;-53
2021/01/21 11:55:25;;;;;;;;;;;;;;;;;;5003183;28;20359;-59
2021/01/21 11:57:51;;;;;;;;;;;;;;;;;;5003356;28;19921;-53
2021/01/21 12:00:16;;;;;;;;;;;;;;;;;;4986632;28;20499;-52
2021/01/21 12:02:42;;;;;;;;;;;;;;;;;;4994998;28;19984;-55
2021/01/21 12:05:08;;;;;;;;;;;;;;;;;;5005094;28;19928;-52
2021/01/21 12:07:34;;;;;;;;;;;;;;;;;;5003858;28;19922;-52
2021/01/21 12:10:00;;;;;;;;;;;;;;;;;;5004306;28;20024;-53
2021/01/21 12:12:26;;;;;;;;;;;;;;;;;;5007555;28;20340;-52
2021/01/21 12:14:52;;;;;;;;;;;;;;;;;;5007564;28;19941;-50
2021/01/21 12:17:18;;;;;;;;;;;;;;;;;;4996999;28;19996;-52
2021/01/21 12:19:44;;;;;;;;;;;;;;;;;;4988727;28;19921;-54
2021/01/21 12:22:10;;;;;;;;;;;;;;;;;;4987881;28;19918;-51
2021/01/21 12:24:36;;;;;;;;;;;;;;;;;;5001287;28;20858;-52
2021/01/21 12:27:02;;;;;;;;;;;;;;;;;;5006090;28;19921;-52
2021/01/21 12:29:28;;;;;;;;;;;;;;;;;;5006039;28;20515;-54
2021/01/21 12:31:54;;;;;;;;;;;;;;;;;;5006431;28;19960;-50
2021/01/21 12:34:20;;;;;;;;;;;;;;;;;;5007373;28;19979;-56
2021/01/21 12:36:46;;;;;;;;;;;;;;;;;;5004446;28;20008;-51
2021/01/21 12:39:12;;;;;;;;;;;;;;;;;;5007335;28;19921;-54
2021/01/21 12:41:38;;;;;;;;;;;;;;;;;;5006896;28;20023;-52
2021/01/21 12:44:04;;;;;;;;;;;;;;;;;;5007779;28;20008;-53
2021/01/21 12:46:30;;;;;;;;;;;;;;;;;;5005125;28;19917;-51
2021/01/21 12:48:56;;;;;;;;;;;;;;;;;;5007134;28;19936;-50
2021/01/21 12:51:22;;;;;;;;;;;;;;;;;;5007018;28;20332;-54
2021/01/21 12:53:48;;;;;;;;;;;;;;;;;;5006624;28;19920;-52
2021/01/21 12:56:14;;;;;;;;;;;;;;;;;;5006118;28;20319;-50
2021/01/21 12:58:40;;;;;;;;;;;;;;;;;;5006836;28;19917;-56
2021/01/21 13:01:06;;;;;;;;;;;;;;;;;;5006685;28;19917;-54
2021/01/21 13:03:32;;;;;;;;;;;;;;;;;;5006513;28;19921;-51
2021/01/21 13:05:57;;;;;;;;;;;;;;;;;;5005874;28;19928;-57
2021/01/21 13:08:24;;;;;;;;;;;;;;;;;;5006335;28;20397;-55
2021/01/21 13:10:49;;;;;;;;;;;;;;;;;;5005292;28;20591;-54
2021/01/21 13:13:16;;;;;;;;;;;;;;;;;;5006071;28;20036;-52
2021/01/21 13:15:45;;;;;;;;;;;;;;;;;;5004816;28;20401;-51
2021/01/21 13:18:11;;;;;;;;;;;;;;;;;;5000744;28;20024;-52
2021/01/21 13:20:37;;;;;;;;;;;;;;;;;;5007145;28;20004;-53
2021/01/21 13:23:06;;;;;;;;;;;;;;;;;;5006238;28;19933;-51
2021/01/21 13:25:32;;;;;;;;;;;;;;;;;;5005309;28;19960;-51
2021/01/21 13:27:58;;;;;;;;;;;;;;;;;;5006123;28;20083;-51
2021/01/21 13:30:24;;;;;;;;;;;;;;;;;;5005337;28;19921;-53
2021/01/21 13:32:50;;;;;;;;;;;;;;;;;;5006301;28;19927;-55
2021/01/21 13:35:15;;;;;;;;;;;;;;;;;;5006017;28;20428;-55
2021/01/21 13:37:41;;;;;;;;;;;;;;;;;;5004945;28;20012;-50
2021/01/21 13:40:07;;;;;;;;;;;;;;;;;;5006798;28;20385;-51
2021/01/21 13:42:33;;;;;;;;;;;;;;;;;;5006662;28;19996;-56
2021/01/21 13:44:59;;;;;;;;;;;;;;;;;;5005171;28;19925;-57
2021/01/21 13:47:25;;;;;;;;;;;;;;;;;;4994037;28;19996;-53
2021/01/21 13:49:51;;;;;;;;;;;;;;;;;;5003878;28;19963;-53
2021/01/21 13:52:17;;;;;;;;;;;;;;;;;;5006148;28;20004;-56
2021/01/21 13:54:43;;;;;;;;;;;;;;;;;;5003894;28;19921;-56
2021/01/21 13:57:09;;;;;;;;;;;;;;;;;;5004507;28;19924;-58
2021/01/21 13:59:35;;;;;;;;;;;;;;;;;;5005669;28;19975;-55
2021/01/21 14:02:00;;;;;;;;;;;;;;;;;;5004604;28;19921;-55
2021/01/21 14:04:26;;;;;;;;;;;;;;;;;;5004503;28;19929;-55
2021/01/21 14:06:52;;;;;;;;;;;;;;;;;;5004136;28;20308;-61
2021/01/21 14:09:18;;;;;;;;;;;;;;;;;;5003907;28;19971;-59
2021/01/21 14:11:45;;;;;;;;;;;;;;;;;;4999906;28;20389;-58
2021/01/21 14:14:12;;;;;;;;;;;;;;;;;;5005005;28;19945;-57
2021/01/21 14:16:38;;;;;;;;;;;;;;;;;;5003820;28;19918;-52
2021/01/21 14:19:03;;;;;;;;;;;;;;;;;;5004840;28;20426;-58
2021/01/21 14:21:30;;;;;;;;;;;;;;;;;;5004514;28;19979;-52
2021/01/21 14:23:56;;;;;;;;;;;;;;;;;;5004404;28;19936;-55
2021/01/21 14:26:22;;;;;;;;;;;;;;;;;;5003612;28;19917;-54
2021/01/21 14:28:48;;;;;;;;;;;;;;;;;;5003178;28;20600;-56
2021/01/21 14:31:13;;;;;;;;;;;;;;;;;;5003923;28;20007;-49
2021/01/21 14:33:39;;;;;;;;;;;;;;;;;;5003712;28;19917;-54
2021/01/21 14:36:05;;;;;;;;;;;;;;;;;;5004010;28;19921;-55
2021/01/21 14:38:31;;;;;;;;;;;;;;;;;;5003581;28;19928;-56
2021/01/21 14:40:57;;;;;;;;;;;;;;;;;;5004407;28;19917;-54
2021/01/21 14:43:23;;;;;;;;;;;;;;;;;;5000811;28;19928;-55
2021/01/21 14:45:49;;;;;;;;;;;;;;;;;;4999040;28;19921;-51
2021/01/21 14:48:15;;;;;;;;;;;;;;;;;;5002976;28;20016;-53
2021/01/21 14:50:41;;;;;;;;;;;;;;;;;;5004627;28;19922;-55
2021/01/21 14:53:08;;;;;;;;;;;;;;;;;;5004376;28;20035;-52
2021/01/21 14:55:34;;;;;;;;;;;;;;;;;;5003190;28;19954;-49
2021/01/21 14:58:00;;;;;;;;;;;;;;;;;;5003204;28;19913;-54
2021/01/21 15:00:26;;;;;;;;;;;;;;;;;;5003567;28;19918;-53
2021/01/21 15:02:51;;;;;;;;;;;;;;;;;;5003234;28;19928;-56
2021/01/21 15:05:17;;;;;;;;;;;;;;;;;;5004225;28;19924;-54
2021/01/21 15:07:43;;;;;;;;;;;;;;;;;;5003335;28;19921;-52
2021/01/21 15:10:09;;;;;;;;;;;;;;;;;;5003750;28;19921;-55
2021/01/21 15:12:35;;;;;;;;;;;;;;;;;;5003592;28;19995;-56
2021/01/21 15:15:01;;;;;;;;;;;;;;;;;;5002234;28;19928;-56
2021/01/21 15:17:27;;;;;;;;;;;;;;;;;;5002215;28;20533;-53
2021/01/21 15:19:53;;;;;;;;;;;;;;;;;;5003847;28;20019;-55
2021/01/21 15:22:19;;;;;;;;;;;;;;;;;;5003758;28;19925;-55
2021/01/21 15:24:44;;;;;;;;;;;;;;;;;;5005178;28;19928;-55
2021/01/21 15:27:11;;;;;;;;;;;;;;;;;;5004045;28;20373;-54
2021/01/21 15:29:37;;;;;;;;;;;;;;;;;;5005179;28;19921;-54
2021/01/21 15:32:03;;;;;;;;;;;;;;;;;;5005659;28;19927;-52
2021/01/21 15:34:29;;;;;;;;;;;;;;;;;;5005326;28;19988;-51
2021/01/21 15:36:54;;;;;;;;;;;;;;;;;;5003768;28;20381;-55
2021/01/21 15:39:20;;;;;;;;;;;;;;;;;;4991456;28;20052;-51
2021/01/21 15:41:46;;;;;;;;;;;;;;;;;;4985788;28;19968;-50
2021/01/21 15:44:12;;;;;;;;;;;;;;;;;;4986387;28;19988;-56
2021/01/21 15:46:38;;;;;;;;;;;;;;;;;;4990173;28;19968;-54
2021/01/21 15:49:05;;;;;;;;;;;;;;;;;;5007532;28;19917;-55
2021/01/21 15:51:33;;;;;;;;;;;;;;;;;;5004271;28;19921;-56